sensor_id;sensor_type;location;lat;lon;timestamp;P1;durP1;ratioP1;P2;durP2;ratioP2
55756;SDS011;41676;44.610;44.078;2022-08-03T00:01:57;6.57;;;2.38;;
55756;SDS011;41676;44.610;44.078;2022-08-03T00:06:58;6.38;;;2.30;;
55756;SDS011;41676;44.610;44.078;2022-08-03T00:11:58;5.32;;;2.45;;
55756;SDS011;41676;44.610;44.078;2022-08-03T00:16:59;7.05;;;2.25;;
55756;SDS011;41676;44.610;44.078;2022-08-03T00:22:00;10.13;;;3.30;;
55756;SDS011;41676;44.610;44.078;2022-08-03T00:27:01;7.07;;;2.85;;
55756;SDS011;41676;44.610;44.078;2022-08-03T00:32:02;8.77;;;3.08;;
55756;SDS011;41676;44.610;44.078;2022-08-03T00:37:03;10.93;;;3.53;;
55756;SDS011;41676;44.610;44.078;2022-08-03T00:42:04;6.45;;;3.65;;
55756;SDS011;41676;44.610;44.078;2022-08-03T00:47:05;5.30;;;2.67;;
55756;SDS011;41676;44.610;44.078;2022-08-03T00:52:07;6.15;;;3.03;;
55756;SDS011;41676;44.610;44.078;2022-08-03T00:57:09;6.03;;;2.72;;
55756;SDS011;41676;44.610;44.078;2022-08-03T01:02:10;21.23;;;4.03;;
55756;SDS011;41676;44.610;44.078;2022-08-03T01:12:24;43.07;;;7.57;;
55756;SDS011;41676;44.610;44.078;2022-08-03T01:23:02;11.80;;;4.10;;
55756;SDS011;41676;44.610;44.078;2022-08-03T01:33:36;7.93;;;3.42;;
55756;SDS011;41676;44.610;44.078;2022-08-03T01:38:41;14.95;;;3.97;;
55756;SDS011;41676;44.610;44.078;2022-08-03T01:43:54;20.00;;;3.88;;
55756;SDS011;41676;44.610;44.078;2022-08-03T01:48:59;90.32;;;9.25;;
55756;SDS011;41676;44.610;44.078;2022-08-03T01:54:01;53.28;;;6.75;;
55756;SDS011;41676;44.610;44.078;2022-08-03T01:59:03;49.58;;;6.72;;
55756;SDS011;41676;44.610;44.078;2022-08-03T02:04:07;21.35;;;4.57;;
55756;SDS011;41676;44.610;44.078;2022-08-03T02:09:09;21.20;;;4.45;;
55756;SDS011;41676;44.610;44.078;2022-08-03T02:14:13;15.13;;;3.65;;
55756;SDS011;41676;44.610;44.078;2022-08-03T02:19:15;23.13;;;4.13;;
55756;SDS011;41676;44.610;44.078;2022-08-03T02:24:17;12.07;;;3.50;;
55756;SDS011;41676;44.610;44.078;2022-08-03T02:29:19;19.48;;;3.65;;
55756;SDS011;41676;44.610;44.078;2022-08-03T02:34:23;17.20;;;4.00;;
55756;SDS011;41676;44.610;44.078;2022-08-03T02:39:29;20.20;;;4.00;;
55756;SDS011;41676;44.610;44.078;2022-08-03T02:44:32;23.55;;;4.10;;
55756;SDS011;41676;44.610;44.078;2022-08-03T02:49:35;13.75;;;3.80;;
55756;SDS011;41676;44.610;44.078;2022-08-03T02:54:37;8.35;;;3.78;;
55756;SDS011;41676;44.610;44.078;2022-08-03T02:59:39;9.15;;;3.13;;
55756;SDS011;41676;44.610;44.078;2022-08-03T03:04:43;9.10;;;4.00;;
55756;SDS011;41676;44.610;44.078;2022-08-03T03:09:45;12.35;;;3.30;;
55756;SDS011;41676;44.610;44.078;2022-08-03T03:14:46;10.10;;;3.17;;
55756;SDS011;41676;44.610;44.078;2022-08-03T03:19:48;9.98;;;3.40;;
55756;SDS011;41676;44.610;44.078;2022-08-03T03:24:50;13.80;;;3.03;;
55756;SDS011;41676;44.610;44.078;2022-08-03T03:29:53;8.00;;;3.33;;
55756;SDS011;41676;44.610;44.078;2022-08-03T03:34:55;20.30;;;4.53;;
55756;SDS011;41676;44.610;44.078;2022-08-03T03:39:58;24.50;;;3.17;;
55756;SDS011;41676;44.610;44.078;2022-08-03T03:45:02;11.10;;;2.85;;
55756;SDS011;41676;44.610;44.078;2022-08-03T03:50:04;9.65;;;2.90;;
55756;SDS011;41676;44.610;44.078;2022-08-03T03:55:06;7.88;;;2.80;;
55756;SDS011;41676;44.610;44.078;2022-08-03T04:00:07;10.68;;;2.75;;
55756;SDS011;41676;44.610;44.078;2022-08-03T04:05:08;17.00;;;3.83;;
55756;SDS011;41676;44.610;44.078;2022-08-03T04:10:28;7.45;;;2.63;;
55756;SDS011;41676;44.610;44.078;2022-08-03T04:15:51;7.63;;;2.92;;
55756;SDS011;41676;44.610;44.078;2022-08-03T04:20:54;4.78;;;2.60;;
55756;SDS011;41676;44.610;44.078;2022-08-03T04:26:00;7.63;;;3.28;;
55756;SDS011;41676;44.610;44.078;2022-08-03T04:31:02;5.68;;;2.50;;
55756;SDS011;41676;44.610;44.078;2022-08-03T04:36:05;7.43;;;2.60;;
55756;SDS011;41676;44.610;44.078;2022-08-03T04:41:08;9.45;;;2.60;;
55756;SDS011;41676;44.610;44.078;2022-08-03T04:46:10;16.70;;;3.70;;
55756;SDS011;41676;44.610;44.078;2022-08-03T04:51:11;16.48;;;5.05;;
55756;SDS011;41676;44.610;44.078;2022-08-03T04:56:12;15.45;;;4.10;;
55756;SDS011;41676;44.610;44.078;2022-08-03T05:01:13;8.25;;;2.67;;
55756;SDS011;41676;44.610;44.078;2022-08-03T05:06:15;14.77;;;3.60;;
55756;SDS011;41676;44.610;44.078;2022-08-03T05:11:16;22.33;;;4.32;;
55756;SDS011;41676;44.610;44.078;2022-08-03T05:16:17;10.40;;;2.70;;
55756;SDS011;41676;44.610;44.078;2022-08-03T05:21:18;11.13;;;3.10;;
55756;SDS011;41676;44.610;44.078;2022-08-03T05:26:19;11.40;;;2.70;;
55756;SDS011;41676;44.610;44.078;2022-08-03T05:31:20;14.18;;;3.00;;
55756;SDS011;41676;44.610;44.078;2022-08-03T05:36:21;7.70;;;2.80;;
55756;SDS011;41676;44.610;44.078;2022-08-03T05:41:22;17.27;;;2.67;;
55756;SDS011;41676;44.610;44.078;2022-08-03T05:46:23;8.13;;;2.50;;
55756;SDS011;41676;44.610;44.078;2022-08-03T05:51:24;10.95;;;2.20;;
55756;SDS011;41676;44.610;44.078;2022-08-03T05:56:25;14.50;;;2.60;;
55756;SDS011;41676;44.610;44.078;2022-08-03T06:01:26;23.33;;;3.60;;
55756;SDS011;41676;44.610;44.078;2022-08-03T06:06:26;39.13;;;3.80;;
55756;SDS011;41676;44.610;44.078;2022-08-03T06:11:27;15.15;;;3.40;;
55756;SDS011;41676;44.610;44.078;2022-08-03T06:16:28;9.77;;;3.47;;
55756;SDS011;41676;44.610;44.078;2022-08-03T06:21:29;13.90;;;3.03;;
55756;SDS011;41676;44.610;44.078;2022-08-03T06:26:30;8.82;;;2.50;;
55756;SDS011;41676;44.610;44.078;2022-08-03T06:31:32;13.15;;;2.65;;
55756;SDS011;41676;44.610;44.078;2022-08-03T06:36:33;9.20;;;2.47;;
55756;SDS011;41676;44.610;44.078;2022-08-03T06:41:33;9.32;;;2.25;;
55756;SDS011;41676;44.610;44.078;2022-08-03T06:46:34;10.00;;;2.17;;
55756;SDS011;41676;44.610;44.078;2022-08-03T06:51:35;6.82;;;2.10;;
55756;SDS011;41676;44.610;44.078;2022-08-03T06:56:36;10.60;;;2.47;;
55756;SDS011;41676;44.610;44.078;2022-08-03T07:01:37;13.48;;;2.63;;
55756;SDS011;41676;44.610;44.078;2022-08-03T07:06:38;12.02;;;2.42;;
55756;SDS011;41676;44.610;44.078;2022-08-03T07:11:38;12.32;;;2.45;;
55756;SDS011;41676;44.610;44.078;2022-08-03T07:16:39;8.70;;;2.08;;
55756;SDS011;41676;44.610;44.078;2022-08-03T07:21:40;11.65;;;2.72;;
55756;SDS011;41676;44.610;44.078;2022-08-03T07:26:41;5.40;;;2.47;;
55756;SDS011;41676;44.610;44.078;2022-08-03T07:31:42;18.98;;;3.30;;
55756;SDS011;41676;44.610;44.078;2022-08-03T07:36:42;9.05;;;2.20;;
55756;SDS011;41676;44.610;44.078;2022-08-03T07:41:44;6.72;;;2.47;;
55756;SDS011;41676;44.610;44.078;2022-08-03T07:46:45;7.20;;;2.53;;
55756;SDS011;41676;44.610;44.078;2022-08-03T07:51:46;9.63;;;2.63;;
55756;SDS011;41676;44.610;44.078;2022-08-03T07:57:07;5.70;;;2.38;;
55756;SDS011;41676;44.610;44.078;2022-08-03T08:02:07;16.30;;;2.75;;
55756;SDS011;41676;44.610;44.078;2022-08-03T08:07:08;17.33;;;3.25;;
55756;SDS011;41676;44.610;44.078;2022-08-03T08:12:09;11.48;;;3.70;;
55756;SDS011;41676;44.610;44.078;2022-08-03T08:22:12;10.77;;;3.75;;
55756;SDS011;41676;44.610;44.078;2022-08-03T08:27:13;9.40;;;3.60;;
55756;SDS011;41676;44.610;44.078;2022-08-03T08:32:14;15.33;;;6.03;;
55756;SDS011;41676;44.610;44.078;2022-08-03T08:37:15;9.70;;;3.30;;
55756;SDS011;41676;44.610;44.078;2022-08-03T08:42:16;9.48;;;6.95;;
55756;SDS011;41676;44.610;44.078;2022-08-03T08:47:17;7.90;;;3.92;;
55756;SDS011;41676;44.610;44.078;2022-08-03T08:52:24;19.92;;;5.47;;
55756;SDS011;41676;44.610;44.078;2022-08-03T08:57:33;13.80;;;4.85;;
55756;SDS011;41676;44.610;44.078;2022-08-03T09:02:38;12.68;;;3.38;;
55756;SDS011;41676;44.610;44.078;2022-08-03T09:07:39;4.72;;;2.50;;
55756;SDS011;41676;44.610;44.078;2022-08-03T09:12:41;22.08;;;2.88;;
55756;SDS011;41676;44.610;44.078;2022-08-03T09:17:43;13.18;;;2.75;;
55756;SDS011;41676;44.610;44.078;2022-08-03T09:22:51;9.70;;;2.70;;
55756;SDS011;41676;44.610;44.078;2022-08-03T09:28:06;7.25;;;2.50;;
55756;SDS011;41676;44.610;44.078;2022-08-03T09:33:10;10.45;;;2.33;;
55756;SDS011;41676;44.610;44.078;2022-08-03T09:43:27;8.85;;;2.60;;
55756;SDS011;41676;44.610;44.078;2022-08-03T09:48:28;5.73;;;2.27;;
55756;SDS011;41676;44.610;44.078;2022-08-03T09:53:31;23.70;;;3.00;;
55756;SDS011;41676;44.610;44.078;2022-08-03T09:58:45;9.63;;;2.58;;
55756;SDS011;41676;44.610;44.078;2022-08-03T10:03:49;10.77;;;2.75;;
55756;SDS011;41676;44.610;44.078;2022-08-03T10:09:08;21.43;;;3.70;;
55756;SDS011;41676;44.610;44.078;2022-08-03T10:14:13;8.10;;;2.35;;
55756;SDS011;41676;44.610;44.078;2022-08-03T10:19:22;13.30;;;3.10;;
55756;SDS011;41676;44.610;44.078;2022-08-03T10:29:27;33.00;;;3.97;;
55756;SDS011;41676;44.610;44.078;2022-08-03T10:34:30;6.88;;;2.70;;
55756;SDS011;41676;44.610;44.078;2022-08-03T10:39:34;7.28;;;3.00;;
55756;SDS011;41676;44.610;44.078;2022-08-03T10:44:36;10.37;;;2.70;;
55756;SDS011;41676;44.610;44.078;2022-08-03T10:49:40;14.05;;;3.35;;
55756;SDS011;41676;44.610;44.078;2022-08-03T10:54:42;8.10;;;2.70;;
55756;SDS011;41676;44.610;44.078;2022-08-03T11:00:02;7.80;;;2.50;;
55756;SDS011;41676;44.610;44.078;2022-08-03T11:10:31;22.98;;;3.00;;
55756;SDS011;41676;44.610;44.078;2022-08-03T11:15:32;13.15;;;3.20;;
55756;SDS011;41676;44.610;44.078;2022-08-03T11:26:12;8.10;;;2.63;;
55756;SDS011;41676;44.610;44.078;2022-08-03T11:36:26;11.73;;;4.70;;
55756;SDS011;41676;44.610;44.078;2022-08-03T11:41:33;8.13;;;4.80;;
55756;SDS011;41676;44.610;44.078;2022-08-03T11:46:35;5.15;;;2.60;;
55756;SDS011;41676;44.610;44.078;2022-08-03T11:51:37;18.23;;;2.95;;
55756;SDS011;41676;44.610;44.078;2022-08-03T11:56:43;16.38;;;3.38;;
55756;SDS011;41676;44.610;44.078;2022-08-03T12:01:44;10.50;;;2.40;;
55756;SDS011;41676;44.610;44.078;2022-08-03T12:06:59;9.50;;;2.80;;
55756;SDS011;41676;44.610;44.078;2022-08-03T12:12:03;8.35;;;2.92;;
55756;SDS011;41676;44.610;44.078;2022-08-03T12:17:04;19.43;;;3.20;;
55756;SDS011;41676;44.610;44.078;2022-08-03T12:27:06;14.13;;;3.60;;
55756;SDS011;41676;44.610;44.078;2022-08-03T12:32:07;15.50;;;2.78;;
55756;SDS011;41676;44.610;44.078;2022-08-03T12:37:08;12.13;;;3.13;;
55756;SDS011;41676;44.610;44.078;2022-08-03T12:42:08;9.13;;;2.72;;
55756;SDS011;41676;44.610;44.078;2022-08-03T12:47:09;8.63;;;3.30;;
55756;SDS011;41676;44.610;44.078;2022-08-03T12:52:11;9.18;;;2.60;;
55756;SDS011;41676;44.610;44.078;2022-08-03T12:57:12;19.93;;;2.83;;
55756;SDS011;41676;44.610;44.078;2022-08-03T13:02:20;12.55;;;2.60;;
55756;SDS011;41676;44.610;44.078;2022-08-03T13:07:22;11.25;;;2.72;;
55756;SDS011;41676;44.610;44.078;2022-08-03T13:12:26;10.80;;;2.53;;
55756;SDS011;41676;44.610;44.078;2022-08-03T13:17:29;10.30;;;2.35;;
55756;SDS011;41676;44.610;44.078;2022-08-03T13:22:29;7.95;;;2.90;;
55756;SDS011;41676;44.610;44.078;2022-08-03T13:27:32;17.75;;;3.08;;
55756;SDS011;41676;44.610;44.078;2022-08-03T13:32:33;15.07;;;3.22;;
55756;SDS011;41676;44.610;44.078;2022-08-03T13:37:35;7.83;;;2.80;;
55756;SDS011;41676;44.610;44.078;2022-08-03T13:42:36;7.97;;;2.77;;
55756;SDS011;41676;44.610;44.078;2022-08-03T13:47:37;6.53;;;2.40;;
55756;SDS011;41676;44.610;44.078;2022-08-03T13:52:38;13.60;;;3.05;;
55756;SDS011;41676;44.610;44.078;2022-08-03T13:57:39;9.95;;;2.53;;
55756;SDS011;41676;44.610;44.078;2022-08-03T14:02:39;17.58;;;3.08;;
55756;SDS011;41676;44.610;44.078;2022-08-03T14:07:40;6.93;;;2.78;;
55756;SDS011;41676;44.610;44.078;2022-08-03T14:12:41;17.70;;;3.60;;
55756;SDS011;41676;44.610;44.078;2022-08-03T14:17:42;10.18;;;2.60;;
55756;SDS011;41676;44.610;44.078;2022-08-03T14:22:43;8.32;;;2.97;;
55756;SDS011;41676;44.610;44.078;2022-08-03T14:27:43;22.33;;;3.70;;
55756;SDS011;41676;44.610;44.078;2022-08-03T14:32:46;10.68;;;3.00;;
55756;SDS011;41676;44.610;44.078;2022-08-03T14:37:47;12.82;;;3.17;;
55756;SDS011;41676;44.610;44.078;2022-08-03T14:42:47;28.10;;;4.15;;
55756;SDS011;41676;44.610;44.078;2022-08-03T14:47:48;35.08;;;4.35;;
55756;SDS011;41676;44.610;44.078;2022-08-03T14:52:50;18.77;;;3.90;;
55756;SDS011;41676;44.610;44.078;2022-08-03T14:57:51;10.65;;;2.78;;
55756;SDS011;41676;44.610;44.078;2022-08-03T15:02:52;6.63;;;2.90;;
55756;SDS011;41676;44.610;44.078;2022-08-03T15:07:53;11.75;;;3.17;;
55756;SDS011;41676;44.610;44.078;2022-08-03T15:12:54;26.58;;;4.03;;
55756;SDS011;41676;44.610;44.078;2022-08-03T15:17:55;10.40;;;2.75;;
55756;SDS011;41676;44.610;44.078;2022-08-03T15:22:55;24.27;;;3.22;;
55756;SDS011;41676;44.610;44.078;2022-08-03T15:27:56;18.67;;;3.30;;
55756;SDS011;41676;44.610;44.078;2022-08-03T15:32:57;21.85;;;3.17;;
55756;SDS011;41676;44.610;44.078;2022-08-03T15:37:58;11.85;;;3.13;;
55756;SDS011;41676;44.610;44.078;2022-08-03T15:42:59;23.75;;;4.57;;
55756;SDS011;41676;44.610;44.078;2022-08-03T15:48:00;26.23;;;3.40;;
55756;SDS011;41676;44.610;44.078;2022-08-03T15:53:02;12.85;;;3.58;;
55756;SDS011;41676;44.610;44.078;2022-08-03T15:58:03;12.57;;;3.15;;
55756;SDS011;41676;44.610;44.078;2022-08-03T16:03:04;19.92;;;3.95;;
55756;SDS011;41676;44.610;44.078;2022-08-03T16:08:05;18.80;;;3.70;;
55756;SDS011;41676;44.610;44.078;2022-08-03T16:13:06;19.75;;;4.18;;
55756;SDS011;41676;44.610;44.078;2022-08-03T16:18:07;20.50;;;4.00;;
55756;SDS011;41676;44.610;44.078;2022-08-03T16:23:08;15.20;;;4.10;;
55756;SDS011;41676;44.610;44.078;2022-08-03T16:28:09;13.10;;;3.30;;
55756;SDS011;41676;44.610;44.078;2022-08-03T16:33:12;13.18;;;3.33;;
55756;SDS011;41676;44.610;44.078;2022-08-03T16:38:15;16.30;;;3.78;;
55756;SDS011;41676;44.610;44.078;2022-08-03T16:43:16;22.90;;;4.07;;
55756;SDS011;41676;44.610;44.078;2022-08-03T16:48:19;18.27;;;3.83;;
55756;SDS011;41676;44.610;44.078;2022-08-03T16:53:20;18.70;;;3.50;;
55756;SDS011;41676;44.610;44.078;2022-08-03T16:58:21;14.50;;;3.92;;
55756;SDS011;41676;44.610;44.078;2022-08-03T17:03:22;21.33;;;4.38;;
55756;SDS011;41676;44.610;44.078;2022-08-03T17:08:23;17.83;;;3.97;;
55756;SDS011;41676;44.610;44.078;2022-08-03T17:13:24;20.85;;;4.35;;
55756;SDS011;41676;44.610;44.078;2022-08-03T17:18:24;17.15;;;4.30;;
55756;SDS011;41676;44.610;44.078;2022-08-03T17:23:43;14.00;;;3.55;;
55756;SDS011;41676;44.610;44.078;2022-08-03T17:28:50;11.57;;;3.20;;
55756;SDS011;41676;44.610;44.078;2022-08-03T17:33:52;8.40;;;3.40;;
55756;SDS011;41676;44.610;44.078;2022-08-03T17:38:53;8.23;;;3.20;;
55756;SDS011;41676;44.610;44.078;2022-08-03T17:43:54;12.45;;;3.20;;
55756;SDS011;41676;44.610;44.078;2022-08-03T17:48:55;17.27;;;3.70;;
55756;SDS011;41676;44.610;44.078;2022-08-03T17:54:19;14.88;;;4.00;;
55756;SDS011;41676;44.610;44.078;2022-08-03T17:59:19;12.05;;;3.97;;
55756;SDS011;41676;44.610;44.078;2022-08-03T18:04:27;12.05;;;4.18;;
55756;SDS011;41676;44.610;44.078;2022-08-03T18:09:30;17.35;;;5.68;;
55756;SDS011;41676;44.610;44.078;2022-08-03T18:14:47;17.63;;;8.55;;
55756;SDS011;41676;44.610;44.078;2022-08-03T18:19:52;21.60;;;11.90;;
55756;SDS011;41676;44.610;44.078;2022-08-03T18:24:55;33.90;;;13.43;;
55756;SDS011;41676;44.610;44.078;2022-08-03T18:29:56;23.90;;;12.20;;
55756;SDS011;41676;44.610;44.078;2022-08-03T18:34:58;21.17;;;10.90;;
55756;SDS011;41676;44.610;44.078;2022-08-03T18:40:02;20.10;;;8.30;;
55756;SDS011;41676;44.610;44.078;2022-08-03T18:45:04;20.63;;;11.90;;
55756;SDS011;41676;44.610;44.078;2022-08-03T18:50:07;22.42;;;9.13;;
55756;SDS011;41676;44.610;44.078;2022-08-03T18:55:18;12.55;;;7.43;;
55756;SDS011;41676;44.610;44.078;2022-08-03T19:00:24;17.00;;;7.32;;
55756;SDS011;41676;44.610;44.078;2022-08-03T19:05:31;11.20;;;7.05;;
55756;SDS011;41676;44.610;44.078;2022-08-03T19:10:52;12.25;;;6.45;;
55756;SDS011;41676;44.610;44.078;2022-08-03T19:15:58;19.27;;;6.60;;
55756;SDS011;41676;44.610;44.078;2022-08-03T19:21:02;12.13;;;6.45;;
55756;SDS011;41676;44.610;44.078;2022-08-03T19:26:04;10.85;;;5.72;;
55756;SDS011;41676;44.610;44.078;2022-08-03T19:31:06;16.27;;;6.90;;
55756;SDS011;41676;44.610;44.078;2022-08-03T19:36:08;33.20;;;7.20;;
55756;SDS011;41676;44.610;44.078;2022-08-03T19:41:12;12.20;;;6.05;;
55756;SDS011;41676;44.610;44.078;2022-08-03T19:46:17;18.90;;;6.28;;
55756;SDS011;41676;44.610;44.078;2022-08-03T19:51:19;18.63;;;8.38;;
55756;SDS011;41676;44.610;44.078;2022-08-03T19:56:22;14.73;;;7.38;;
55756;SDS011;41676;44.610;44.078;2022-08-03T20:01:25;28.95;;;6.55;;
55756;SDS011;41676;44.610;44.078;2022-08-03T20:06:26;17.35;;;6.25;;
55756;SDS011;41676;44.610;44.078;2022-08-03T20:11:27;11.88;;;6.50;;
55756;SDS011;41676;44.610;44.078;2022-08-03T20:16:29;14.60;;;6.50;;
55756;SDS011;41676;44.610;44.078;2022-08-03T20:21:30;11.73;;;7.20;;
55756;SDS011;41676;44.610;44.078;2022-08-03T20:26:34;14.23;;;6.22;;
55756;SDS011;41676;44.610;44.078;2022-08-03T20:31:35;25.50;;;7.43;;
55756;SDS011;41676;44.610;44.078;2022-08-03T20:36:36;21.63;;;6.18;;
55756;SDS011;41676;44.610;44.078;2022-08-03T20:41:38;17.98;;;6.05;;
55756;SDS011;41676;44.610;44.078;2022-08-03T20:46:40;9.80;;;5.23;;
55756;SDS011;41676;44.610;44.078;2022-08-03T20:51:41;13.73;;;5.80;;
55756;SDS011;41676;44.610;44.078;2022-08-03T20:56:42;12.70;;;5.93;;
55756;SDS011;41676;44.610;44.078;2022-08-03T21:01:43;13.15;;;5.45;;
55756;SDS011;41676;44.610;44.078;2022-08-03T21:06:45;13.95;;;6.32;;
55756;SDS011;41676;44.610;44.078;2022-08-03T21:11:53;11.45;;;7.25;;
55756;SDS011;41676;44.610;44.078;2022-08-03T21:16:55;10.32;;;5.63;;
55756;SDS011;41676;44.610;44.078;2022-08-03T21:21:58;15.95;;;7.60;;
55756;SDS011;41676;44.610;44.078;2022-08-03T21:26:59;15.35;;;8.15;;
55756;SDS011;41676;44.610;44.078;2022-08-03T21:32:01;11.40;;;6.97;;
55756;SDS011;41676;44.610;44.078;2022-08-03T21:37:02;17.95;;;7.80;;
55756;SDS011;41676;44.610;44.078;2022-08-03T21:42:03;12.73;;;7.50;;
55756;SDS011;41676;44.610;44.078;2022-08-03T21:47:05;13.77;;;7.35;;
55756;SDS011;41676;44.610;44.078;2022-08-03T21:52:08;15.57;;;7.10;;
55756;SDS011;41676;44.610;44.078;2022-08-03T21:57:12;11.35;;;7.70;;
55756;SDS011;41676;44.610;44.078;2022-08-03T22:02:25;19.08;;;8.38;;
55756;SDS011;41676;44.610;44.078;2022-08-03T22:07:27;15.40;;;7.93;;
55756;SDS011;41676;44.610;44.078;2022-08-03T22:12:29;12.30;;;7.18;;
55756;SDS011;41676;44.610;44.078;2022-08-03T22:17:32;8.48;;;6.82;;
55756;SDS011;41676;44.610;44.078;2022-08-03T22:22:36;15.57;;;6.85;;
55756;SDS011;41676;44.610;44.078;2022-08-03T22:27:38;10.88;;;6.28;;
55756;SDS011;41676;44.610;44.078;2022-08-03T22:32:41;10.10;;;7.03;;
55756;SDS011;41676;44.610;44.078;2022-08-03T22:37:43;11.10;;;6.65;;
55756;SDS011;41676;44.610;44.078;2022-08-03T22:42:47;21.33;;;7.53;;
55756;SDS011;41676;44.610;44.078;2022-08-03T22:47:48;13.57;;;6.53;;
55756;SDS011;41676;44.610;44.078;2022-08-03T22:52:51;11.18;;;6.25;;
55756;SDS011;41676;44.610;44.078;2022-08-03T22:57:53;15.95;;;7.22;;
55756;SDS011;41676;44.610;44.078;2022-08-03T23:02:54;16.63;;;7.45;;
55756;SDS011;41676;44.610;44.078;2022-08-03T23:07:56;16.38;;;7.35;;
55756;SDS011;41676;44.610;44.078;2022-08-03T23:13:01;10.32;;;6.63;;
55756;SDS011;41676;44.610;44.078;2022-08-03T23:18:02;11.82;;;7.05;;
55756;SDS011;41676;44.610;44.078;2022-08-03T23:23:05;13.60;;;7.05;;
55756;SDS011;41676;44.610;44.078;2022-08-03T23:28:07;13.70;;;6.88;;
55756;SDS011;41676;44.610;44.078;2022-08-03T23:33:10;13.23;;;6.88;;
55756;SDS011;41676;44.610;44.078;2022-08-03T23:38:15;13.60;;;7.10;;
55756;SDS011;41676;44.610;44.078;2022-08-03T23:43:18;10.88;;;6.35;;
55756;SDS011;41676;44.610;44.078;2022-08-03T23:48:19;14.60;;;7.10;;
55756;SDS011;41676;44.610;44.078;2022-08-03T23:53:22;9.63;;;6.05;;
